Time;durP1;ratioP1;P1;durP2;ratioP2;P2;SDS_P1;SDS_P2;PMS_P1;PMS_P2;Temp;Humidity;BMP_temperature;BMP_pressure;BME280_temperature;BME280_humidity;BME280_pressure;Samples;Min_cycle;Max_cycle;Signal;HPM_P1;HPM_P2
2023/08/02 00:01:17;;;;;;;10.93;2.95;;;17.40;99.90;;;;;;4861280;29;20346;-54
2023/08/02 00:03:44;;;;;;;11.73;3.17;;;17.40;99.90;;;;;;4859946;29;20454;-52
2023/08/02 00:06:23;;;;;;;12.25;3.38;;;17.40;99.90;;;;;;4861408;29;20057;-55
2023/08/02 00:08:50;;;;;;;13.13;3.08;;;17.40;99.90;;;;;;4861415;29;20496;-50
2023/08/02 00:11:17;;;;;;;10.57;3.40;;;17.40;99.90;;;;;;4861574;29;20048;-51
2023/08/02 00:13:43;;;;;;;12.50;3.70;;;17.50;99.90;;;;;;4861402;29;20037;-52
2023/08/02 00:16:10;;;;;;;12.80;3.53;;;17.50;99.90;;;;;;4861521;29;20053;-55
2023/08/02 00:18:37;;;;;;;11.88;3.40;;;17.50;99.90;;;;;;4861281;29;20056;-53
2023/08/02 00:21:04;;;;;;;8.25;2.80;;;17.40;99.90;;;;;;4860698;29;20482;-53
2023/08/02 00:23:31;;;;;;;9.98;3.03;;;17.40;99.90;;;;;;4861010;29;20109;-51
2023/08/02 00:25:57;;;;;;;11.35;3.30;;;17.30;99.90;;;;;;4861111;29;20042;-54
2023/08/02 00:28:24;;;;;;;11.07;3.22;;;17.30;99.90;;;;;;4844442;29;20463;-53
2023/08/02 00:30:52;;;;;;;11.90;3.00;;;17.40;99.90;;;;;;4844524;29;20041;-52
2023/08/02 00:33:19;;;;;;;10.70;3.30;;;17.40;99.90;;;;;;4860033;29;20441;-54
2023/08/02 00:35:46;;;;;;;11.55;2.83;;;17.40;99.90;;;;;;4860932;29;20124;-54
2023/08/02 00:38:13;;;;;;;7.32;2.58;;;17.40;99.90;;;;;;4860994;29;20113;-52
2023/08/02 00:40:39;;;;;;;10.32;2.90;;;17.40;99.90;;;;;;4860944;29;20049;-56
2023/08/02 00:43:06;;;;;;;10.68;3.28;;;17.40;99.90;;;;;;4860936;29;20038;-52
2023/08/02 00:45:33;;;;;;;9.63;2.72;;;17.40;99.90;;;;;;4860967;29;20114;-53
2023/08/02 00:48:00;;;;;;;12.77;2.85;;;17.40;99.90;;;;;;4860684;29;20125;-55
2023/08/02 00:50:27;;;;;;;9.63;2.60;;;17.40;99.90;;;;;;4860912;29;20052;-53
2023/08/02 00:52:54;;;;;;;11.68;3.08;;;17.40;99.90;;;;;;4860739;29;20040;-52
2023/08/02 00:55:21;;;;;;;8.68;2.58;;;17.40;99.90;;;;;;4860899;29;20048;-49
2023/08/02 00:57:47;;;;;;;10.73;3.30;;;17.30;99.90;;;;;;4843914;29;20053;-47
2023/08/02 01:00:14;;;;;;;10.38;2.58;;;17.30;99.90;;;;;;4860585;29;20064;-54
2023/08/02 01:02:41;;;;;;;6.63;2.38;;;17.30;99.90;;;;;;4861151;29;20046;-51
2023/08/02 01:05:08;;;;;;;12.27;3.13;;;17.20;99.90;;;;;;4860845;29;20502;-52
2023/08/02 01:07:39;;;;;;;8.23;2.50;;;17.20;99.90;;;;;;4860651;29;20087;-51
2023/08/02 01:10:06;;;;;;;8.95;2.50;;;17.20;99.90;;;;;;4859406;29;20129;-49
2023/08/02 01:12:32;;;;;;;5.32;2.05;;;17.20;99.90;;;;;;4859364;29;20050;-53
2023/08/02 01:14:59;;;;;;;8.10;2.45;;;17.10;99.90;;;;;;4844175;29;20122;-51
2023/08/02 01:17:26;;;;;;;9.98;2.55;;;17.10;99.90;;;;;;4860487;29;20442;-55
2023/08/02 01:19:55;;;;;;;6.38;2.10;;;17.10;99.90;;;;;;4843944;29;20050;-54
2023/08/02 01:22:22;;;;;;;7.18;2.25;;;17.10;99.90;;;;;;4860564;29;20081;-53
2023/08/02 01:24:49;;;;;;;7.43;2.60;;;17.00;99.90;;;;;;4860736;29;20402;-55
2023/08/02 01:27:16;;;;;;;7.30;2.15;;;17.00;99.90;;;;;;4860627;29;20109;-56
2023/08/02 01:29:43;;;;;;;6.18;2.50;;;17.00;99.90;;;;;;4860770;29;20128;-53
2023/08/02 01:32:10;;;;;;;7.50;2.05;;;16.90;99.90;;;;;;4861120;29;20409;-47
2023/08/02 01:34:37;;;;;;;6.28;2.15;;;17.00;99.90;;;;;;4862513;29;20038;-51
2023/08/02 01:37:04;;;;;;;5.88;1.92;;;17.00;99.90;;;;;;4862960;29;20069;-52
2023/08/02 01:39:31;;;;;;;5.80;1.85;;;17.00;99.90;;;;;;4862927;29;20476;-55
2023/08/02 01:41:57;;;;;;;6.82;1.92;;;17.00;99.90;;;;;;4864426;29;20093;-57
2023/08/02 01:44:24;;;;;;;7.53;2.00;;;16.90;99.90;;;;;;4863230;29;20553;-49
2023/08/02 01:46:51;;;;;;;6.45;2.08;;;16.90;99.90;;;;;;4864125;29;20044;-56
2023/08/02 01:49:18;;;;;;;6.63;1.50;;;16.90;99.90;;;;;;4862508;29;20049;-51
2023/08/02 01:51:45;;;;;;;5.78;2.28;;;17.00;99.90;;;;;;4863714;29;20042;-56
2023/08/02 01:54:12;;;;;;;7.57;1.88;;;17.00;99.90;;;;;;4863962;29;20037;-52
2023/08/02 01:56:38;;;;;;;8.43;1.98;;;17.00;99.90;;;;;;4862650;29;20053;-56
2023/08/02 01:59:06;;;;;;;5.32;2.03;;;17.00;99.90;;;;;;4846994;29;20045;-53
2023/08/02 02:01:33;;;;;;;5.63;2.00;;;17.00;99.90;;;;;;4862883;29;20049;-49
2023/08/02 02:04:00;;;;;;;3.45;1.40;;;17.00;99.90;;;;;;4847338;29;20442;-51
2023/08/02 02:06:27;;;;;;;3.72;1.40;;;17.00;99.90;;;;;;4863915;29;20041;-51
2023/08/02 02:08:54;;;;;;;6.30;1.67;;;17.00;99.90;;;;;;4862312;29;20485;-54
2023/08/02 02:11:21;;;;;;;8.35;1.45;;;16.90;99.90;;;;;;4847115;29;20065;-51
2023/08/02 02:13:48;;;;;;;5.47;1.60;;;16.90;99.90;;;;;;4863365;29;20044;-56
2023/08/02 02:16:15;;;;;;;3.05;1.30;;;16.90;99.90;;;;;;4847087;29;20050;-55
2023/08/02 02:18:42;;;;;;;3.08;1.08;;;16.90;99.90;;;;;;4862057;29;20100;-49
2023/08/02 02:21:08;;;;;;;3.05;1.17;;;16.90;99.90;;;;;;4863225;29;20142;-52
2023/08/02 02:23:35;;;;;;;1.85;1.02;;;16.90;99.90;;;;;;4862237;29;20511;-49
2023/08/02 02:26:02;;;;;;;4.60;0.90;;;16.90;99.90;;;;;;4863244;29;20125;-54
2023/08/02 02:28:29;;;;;;;3.00;0.95;;;16.90;99.90;;;;;;4862947;29;20049;-48
2023/08/02 02:30:56;;;;;;;2.13;0.85;;;16.90;99.90;;;;;;4863684;29;20049;-51
2023/08/02 02:33:23;;;;;;;1.98;0.85;;;16.90;99.90;;;;;;4862044;29;20048;-53
2023/08/02 02:35:50;;;;;;;3.00;0.70;;;16.90;99.90;;;;;;4863307;29;20041;-53
2023/08/02 02:38:17;;;;;;;2.90;0.70;;;16.90;99.90;;;;;;4863059;29;20414;-49
2023/08/02 02:40:44;;;;;;;1.88;0.60;;;17.00;99.90;;;;;;4861842;29;20054;-51
2023/08/02 02:43:11;;;;;;;2.58;0.38;;;17.00;99.90;;;;;;4863281;29;20054;-53
2023/08/02 02:45:38;;;;;;;2.78;0.52;;;17.00;99.90;;;;;;4863133;29;20077;-51
2023/08/02 02:48:05;;;;;;;2.55;0.50;;;16.90;99.90;;;;;;4862894;29;20078;-51
2023/08/02 02:50:31;;;;;;;1.38;0.50;;;16.90;99.90;;;;;;4862988;29;20045;-48
2023/08/02 02:52:58;;;;;;;2.45;0.50;;;16.90;99.90;;;;;;4862690;29;20037;-54
2023/08/02 02:55:25;;;;;;;1.65;0.40;;;16.90;99.90;;;;;;4862469;29;20517;-54
2023/08/02 02:57:52;;;;;;;2.13;0.60;;;16.90;99.90;;;;;;4862893;29;20421;-52
2023/08/02 03:00:19;;;;;;;1.75;0.40;;;16.90;99.90;;;;;;4862348;29;20049;-56
2023/08/02 03:02:46;;;;;;;2.70;0.30;;;16.90;99.90;;;;;;4863174;29;20362;-49
2023/08/02 03:05:13;;;;;;;1.92;0.40;;;16.90;99.90;;;;;;4862601;29;20053;-51
2023/08/02 03:07:39;;;;;;;2.00;0.25;;;16.90;99.90;;;;;;4862276;29;20401;-52
2023/08/02 03:10:06;;;;;;;0.68;0.22;;;16.90;99.90;;;;;;4862676;29;20040;-57
2023/08/02 03:12:33;;;;;;;0.55;0.20;;;17.00;99.90;;;;;;4862342;29;20065;-55
2023/08/02 03:15:00;;;;;;;0.47;0.13;;;17.00;99.90;;;;;;4862450;29;20129;-50
2023/08/02 03:17:27;;;;;;;0.63;0.20;;;17.00;99.90;;;;;;4862433;29;20060;-52
2023/08/02 03:19:54;;;;;;;0.60;0.20;;;17.00;99.90;;;;;;4862224;29;20054;-50
2023/08/02 03:22:21;;;;;;;1.75;0.10;;;17.00;99.90;;;;;;4861804;29;20116;-51
2023/08/02 03:24:48;;;;;;;0.30;0.10;;;17.00;99.90;;;;;;4862068;29;20076;-49
2023/08/02 03:27:15;;;;;;;0.80;0.20;;;17.00;99.90;;;;;;4862052;29;20045;-53
2023/08/02 03:29:41;;;;;;;0.28;0.10;;;17.00;99.90;;;;;;4861981;29;20046;-48
2023/08/02 03:32:08;;;;;;;0.60;0.15;;;17.10;99.90;;;;;;4862090;29;20069;-55
2023/08/02 03:34:35;;;;;;;0.88;0.10;;;17.10;99.90;;;;;;4860737;29;20053;-53
2023/08/02 03:37:02;;;;;;;0.20;0.20;;;17.20;99.90;;;;;;4862019;29;20053;-51
2023/08/02 03:39:28;;;;;;;0.80;0.10;;;17.20;99.90;;;;;;4861923;29;20056;-54
2023/08/02 03:41:55;;;;;;;0.28;0.10;;;17.20;99.90;;;;;;4861665;29;20053;-52
2023/08/02 03:44:22;;;;;;;0.15;0.10;;;17.20;99.90;;;;;;4861667;29;20054;-53
2023/08/02 03:46:49;;;;;;;0.05;0.00;;;17.20;99.90;;;;;;4861470;29;20088;-57
2023/08/02 03:49:16;;;;;;;0.93;0.20;;;17.20;99.90;;;;;;4861386;29;20487;-53
2023/08/02 03:51:43;;;;;;;1.00;0.20;;;17.30;99.90;;;;;;4861598;29;20041;-56
2023/08/02 03:54:12;;;;;;;1.48;0.13;;;17.30;99.90;;;;;;4861534;29;20049;-55
2023/08/02 03:56:39;;;;;;;0.45;0.10;;;17.30;99.90;;;;;;4861150;29;20125;-52
2023/08/02 03:59:06;;;;;;;0.08;0.08;;;17.30;99.90;;;;;;4861645;29;20052;-51
2023/08/02 04:01:33;;;;;;;0.77;0.10;;;17.30;99.90;;;;;;4861318;29;20144;-55
2023/08/02 04:04:00;;;;;;;0.65;0.10;;;17.40;99.90;;;;;;4861481;29;20098;-53
2023/08/02 04:06:27;;;;;;;0.52;0.20;;;17.40;99.90;;;;;;4861722;29;20097;-53
2023/08/02 04:08:54;;;;;;;0.73;0.10;;;17.50;99.90;;;;;;4861056;29;20494;-49
2023/08/02 04:11:21;;;;;;;1.05;0.30;;;17.50;99.90;;;;;;4861066;29;20049;-54
2023/08/02 04:13:47;;;;;;;0.93;0.30;;;17.50;99.90;;;;;;4861398;29;20393;-54
2023/08/02 04:16:14;;;;;;;1.48;0.20;;;17.60;99.90;;;;;;4860302;29;20116;-54
2023/08/02 04:18:42;;;;;;;1.05;0.20;;;17.60;99.90;;;;;;4861714;29;20045;-54
2023/08/02 04:21:09;;;;;;;1.33;0.30;;;17.60;99.90;;;;;;4861314;29;20085;-51
2023/08/02 04:23:36;;;;;;;1.10;0.30;;;17.70;99.90;;;;;;4861010;29;20517;-55
2023/08/02 04:26:02;;;;;;;1.35;0.30;;;17.70;99.90;;;;;;4861355;29;20460;-53
2023/08/02 04:28:29;;;;;;;0.50;0.20;;;17.70;99.90;;;;;;4861322;29;20204;-50
2023/08/02 04:30:56;;;;;;;1.08;0.30;;;17.80;99.90;;;;;;4861322;29;20057;-52
2023/08/02 04:33:23;;;;;;;2.60;0.57;;;17.70;99.90;;;;;;4861465;29;20077;-54
2023/08/02 04:35:50;;;;;;;1.23;0.20;;;17.80;99.90;;;;;;4861176;29;20050;-56
2023/08/02 04:38:16;;;;;;;0.52;0.20;;;17.80;99.90;;;;;;4860713;29;20061;-53
2023/08/02 04:40:45;;;;;;;1.30;0.30;;;17.80;99.90;;;;;;4860776;29;20049;-55
2023/08/02 04:43:12;;;;;;;0.73;0.30;;;17.80;99.90;;;;;;4859873;29;20129;-54
2023/08/02 04:45:39;;;;;;;0.52;0.20;;;17.80;99.90;;;;;;4861494;29;20049;-56
2023/08/02 04:48:05;;;;;;;0.80;0.30;;;17.90;99.90;;;;;;4860950;29;20470;-54
2023/08/02 04:50:33;;;;;;;2.22;0.50;;;17.90;99.90;;;;;;4860332;29;20053;-55
2023/08/02 04:53:00;;;;;;;1.30;0.40;;;17.90;99.90;;;;;;4860303;29;20049;-54
2023/08/02 04:55:27;;;;;;;1.60;0.40;;;17.90;99.90;;;;;;4861022;29;20127;-56
2023/08/02 04:57:54;;;;;;;2.55;0.50;;;17.90;99.90;;;;;;4861103;29;20049;-55
2023/08/02 05:00:21;;;;;;;1.23;0.40;;;17.90;99.90;;;;;;4861263;29;20049;-56
2023/08/02 05:02:48;;;;;;;1.67;0.60;;;17.90;99.90;;;;;;4861268;29;20053;-57
2023/08/02 05:05:14;;;;;;;1.55;0.60;;;18.00;99.90;;;;;;4860670;29;20053;-54
2023/08/02 05:07:41;;;;;;;2.35;0.70;;;17.90;99.90;;;;;;4861314;29;20053;-52
2023/08/02 05:10:08;;;;;;;3.03;1.10;;;18.00;99.90;;;;;;4865102;29;20053;-54
2023/08/02 05:12:35;;;;;;;4.30;1.10;;;18.00;99.90;;;;;;4864637;29;20050;-54
2023/08/02 05:15:02;;;;;;;6.32;1.63;;;18.00;99.90;;;;;;4864804;29;20046;-54
2023/08/02 05:17:29;;;;;;;7.72;1.85;;;18.00;99.90;;;;;;4864754;29;20057;-55
2023/08/02 05:19:56;;;;;;;9.93;2.08;;;18.00;99.90;;;;;;4864274;29;20049;-55
2023/08/02 05:22:22;;;;;;;6.10;2.03;;;18.00;99.90;;;;;;4864212;29;20061;-51
2023/08/02 05:24:49;;;;;;;3.92;1.65;;;18.10;99.90;;;;;;4864742;29;20480;-53
2023/08/02 05:27:16;;;;;;;6.43;2.22;;;18.10;99.90;;;;;;4864325;29;20057;-54
2023/08/02 05:29:42;;;;;;;8.73;1.90;;;18.10;99.90;;;;;;4863894;29;20055;-56
2023/08/02 05:32:09;;;;;;;6.28;1.90;;;18.10;99.90;;;;;;4864481;29;20049;-55
2023/08/02 05:34:36;;;;;;;6.35;1.90;;;18.20;99.90;;;;;;4863922;29;20550;-56
2023/08/02 05:37:03;;;;;;;7.00;2.17;;;18.20;99.90;;;;;;4864029;29;20426;-60
2023/08/02 05:39:30;;;;;;;7.70;1.88;;;18.20;99.90;;;;;;4862870;29;20401;-56
2023/08/02 05:41:56;;;;;;;7.55;2.38;;;18.30;99.90;;;;;;4864290;29;20077;-55
2023/08/02 05:44:23;;;;;;;9.57;2.22;;;18.30;99.90;;;;;;4863840;29;20045;-55
2023/08/02 05:46:50;;;;;;;9.43;2.45;;;18.30;99.90;;;;;;4863799;29;20045;-55
2023/08/02 05:49:17;;;;;;;10.40;2.15;;;18.20;99.90;;;;;;4863828;29;20052;-54
2023/08/02 05:51:43;;;;;;;9.55;2.65;;;18.30;99.90;;;;;;4863970;29;20080;-56
2023/08/02 05:54:11;;;;;;;8.30;1.95;;;18.40;99.90;;;;;;4862674;29;20049;-55
2023/08/02 05:56:37;;;;;;;9.68;1.92;;;18.40;99.90;;;;;;4863694;29;20062;-57
2023/08/02 05:59:04;;;;;;;7.45;2.20;;;18.40;99.90;;;;;;4863420;29;20049;-53
2023/08/02 06:01:31;;;;;;;7.43;2.00;;;18.40;99.90;;;;;;4863513;29;20072;-56
2023/08/02 06:03:59;;;;;;;12.25;2.38;;;18.40;99.90;;;;;;4847038;29;20504;-56
2023/08/02 06:06:26;;;;;;;9.70;1.90;;;18.40;99.90;;;;;;4863666;29;20049;-55
2023/08/02 06:08:53;;;;;;;7.25;2.03;;;18.40;99.90;;;;;;4862248;29;20060;-51
2023/08/02 06:11:19;;;;;;;7.07;1.73;;;18.40;99.90;;;;;;4863630;29;20046;-57
2023/08/02 06:13:46;;;;;;;4.88;1.50;;;18.30;99.90;;;;;;4863453;29;20048;-55
2023/08/02 06:16:13;;;;;;;8.52;1.95;;;18.30;99.90;;;;;;4863377;29;20048;-56
2023/08/02 06:18:40;;;;;;;4.70;1.20;;;18.30;99.90;;;;;;4862998;29;20049;-55
2023/08/02 06:21:07;;;;;;;5.05;1.20;;;18.30;99.90;;;;;;4863509;29;20507;-57
2023/08/02 06:23:33;;;;;;;4.50;1.38;;;18.40;99.90;;;;;;4863269;29;20148;-55
2023/08/02 06:26:00;;;;;;;5.28;1.23;;;18.40;99.90;;;;;;4863328;29;20053;-55
2023/08/02 06:28:27;;;;;;;6.03;1.70;;;18.40;99.90;;;;;;4863303;29;20041;-56
2023/08/02 06:30:54;;;;;;;5.93;1.70;;;18.50;99.90;;;;;;4863095;29;20396;-55
2023/08/02 06:33:21;;;;;;;5.47;1.20;;;18.50;99.90;;;;;;4863386;29;20128;-57
2023/08/02 06:35:48;;;;;;;5.95;1.50;;;18.50;99.90;;;;;;4863397;29;20427;-56
2023/08/02 06:38:14;;;;;;;6.93;1.60;;;18.60;99.90;;;;;;4863213;29;20042;-57
2023/08/02 06:40:41;;;;;;;5.13;1.20;;;18.60;99.90;;;;;;4863193;29;20042;-56
2023/08/02 06:43:08;;;;;;;5.60;1.58;;;18.60;99.90;;;;;;4862935;29;20132;-57
2023/08/02 06:45:35;;;;;;;5.75;1.42;;;18.50;99.90;;;;;;4863516;29;20045;-58
2023/08/02 06:48:02;;;;;;;6.18;1.42;;;18.50;99.90;;;;;;4862590;29;20042;-57
2023/08/02 06:50:28;;;;;;;7.40;1.73;;;18.40;99.90;;;;;;4863370;29;20041;-57
2023/08/02 06:52:55;;;;;;;8.45;1.67;;;18.40;99.90;;;;;;4862198;29;20041;-56
2023/08/02 06:55:22;;;;;;;7.32;1.63;;;18.40;99.90;;;;;;4862129;29;20124;-58
2023/08/02 06:57:49;;;;;;;8.90;2.13;;;18.40;99.90;;;;;;4859676;29;20094;-55
2023/08/02 07:00:16;;;;;;;6.50;1.95;;;18.40;99.90;;;;;;4864099;29;20400;-57
2023/08/02 07:02:42;;;;;;;7.47;1.77;;;18.50;99.90;;;;;;4874217;29;20068;-54
2023/08/02 07:05:09;;;;;;;9.02;2.40;;;18.50;99.90;;;;;;4861964;29;20524;-51
2023/08/02 07:07:36;;;;;;;7.43;2.08;;;18.60;99.90;;;;;;4861427;29;20055;-51
2023/08/02 07:10:03;;;;;;;10.27;2.00;;;18.60;99.90;;;;;;4860999;29;20042;-49
2023/08/02 07:12:30;;;;;;;5.68;1.58;;;18.60;99.90;;;;;;4858935;29;20045;-50
2023/08/02 07:14:57;;;;;;;6.80;1.52;;;18.60;99.90;;;;;;4861705;29;20124;-52
2023/08/02 07:17:24;;;;;;;7.88;1.73;;;18.50;99.90;;;;;;4860717;29;20042;-48
2023/08/02 07:19:50;;;;;;;5.30;1.50;;;18.50;99.90;;;;;;4860425;29;20050;-48
2023/08/02 07:22:17;;;;;;;7.70;1.63;;;18.50;99.90;;;;;;4861385;29;20528;-52
2023/08/02 07:24:44;;;;;;;8.73;1.58;;;18.40;99.90;;;;;;4861504;29;20490;-52
2023/08/02 07:27:11;;;;;;;5.85;1.42;;;18.30;99.90;;;;;;4861143;29;20046;-51
2023/08/02 07:29:38;;;;;;;5.10;1.35;;;18.20;99.90;;;;;;4861454;29;20042;-47
2023/08/02 07:32:05;;;;;;;6.38;1.20;;;18.20;99.90;;;;;;4860135;29;20133;-48
2023/08/02 07:34:32;;;;;;;4.50;1.10;;;18.20;99.90;;;;;;4864140;29;20045;-53
2023/08/02 07:36:59;;;;;;;4.55;1.10;;;18.20;99.90;;;;;;4861000;29;20124;-54
2023/08/02 07:39:25;;;;;;;6.10;1.60;;;18.30;99.90;;;;;;4855387;29;20141;-50
2023/08/02 07:41:52;;;;;;;7.05;1.20;;;18.40;99.90;;;;;;4861248;29;20486;-53
2023/08/02 07:44:19;;;;;;;5.78;1.40;;;18.50;99.90;;;;;;4860457;29;20068;-54
2023/08/02 07:46:46;;;;;;;6.90;1.40;;;18.50;99.90;;;;;;4854973;29;20053;-58
2023/08/02 07:49:13;;;;;;;6.93;1.45;;;18.50;99.90;;;;;;4861235;29;20050;-50
2023/08/02 07:51:39;;;;;;;10.20;1.63;;;18.60;99.90;;;;;;4860795;29;20441;-57
2023/08/02 07:54:07;;;;;;;6.07;1.48;;;18.70;99.90;;;;;;4860895;29;20565;-53
2023/08/02 07:56:33;;;;;;;8.18;1.50;;;18.70;99.90;;;;;;4859370;29;20053;-55
2023/08/02 07:59:00;;;;;;;8.35;1.90;;;18.70;99.90;;;;;;4860683;29;20045;-55
2023/08/02 08:01:30;;;;;;;8.82;1.50;;;18.80;99.90;;;;;;4860943;29;20054;-53
2023/08/02 08:03:57;;;;;;;7.70;1.48;;;18.80;99.90;;;;;;4860945;29;20056;-56
2023/08/02 08:06:24;;;;;;;4.25;1.20;;;18.90;99.90;;;;;;4860692;29;20158;-50
2023/08/02 08:08:50;;;;;;;7.22;1.55;;;18.90;99.90;;;;;;4859834;29;20049;-57
2023/08/02 08:11:17;;;;;;;7.28;1.38;;;19.10;99.90;;;;;;4860652;29;20120;-57
2023/08/02 08:13:45;;;;;;;6.10;1.58;;;19.20;99.90;;;;;;4859243;29;20038;-55
2023/08/02 08:16:12;;;;;;;7.60;1.42;;;19.10;99.90;;;;;;4860631;29;20117;-53
2023/08/02 08:18:39;;;;;;;6.43;1.65;;;19.20;99.90;;;;;;4860477;29;20113;-53
2023/08/02 08:21:06;;;;;;;7.38;1.70;;;19.20;99.90;;;;;;4859505;29;20076;-50
2023/08/02 08:23:33;;;;;;;7.32;1.50;;;19.20;99.90;;;;;;4859406;29;20505;-48
2023/08/02 08:26:00;;;;;;;5.97;1.52;;;19.40;99.90;;;;;;4860313;29;20099;-48
2023/08/02 08:28:26;;;;;;;7.70;1.73;;;19.40;99.90;;;;;;4859987;29;20059;-48
2023/08/02 08:30:53;;;;;;;5.50;1.20;;;19.40;99.90;;;;;;4860543;29;20053;-48
2023/08/02 08:33:20;;;;;;;5.35;1.35;;;19.50;99.90;;;;;;4860498;29;20046;-47
2023/08/02 08:35:47;;;;;;;6.47;1.52;;;19.60;99.90;;;;;;4860255;29;20049;-52
2023/08/02 08:38:14;;;;;;;8.32;1.65;;;19.70;99.90;;;;;;4860103;29;20052;-56
2023/08/02 08:40:40;;;;;;;8.10;2.13;;;19.90;99.90;;;;;;4859929;29;20073;-54
2023/08/02 08:43:07;;;;;;;6.25;1.30;;;20.10;99.90;;;;;;4858770;29;20046;-54
2023/08/02 08:45:34;;;;;;;4.60;1.30;;;20.30;99.90;;;;;;4860111;29;20133;-51
2023/08/02 08:48:01;;;;;;;7.28;1.80;;;20.40;99.90;;;;;;4858307;29;20052;-51
2023/08/02 08:50:27;;;;;;;7.55;1.48;;;20.40;99.90;;;;;;4858933;29;20041;-53
2023/08/02 08:52:54;;;;;;;7.75;1.95;;;20.50;99.90;;;;;;4858425;29;20049;-48
2023/08/02 08:55:25;;;;;;;7.05;1.77;;;20.60;99.90;;;;;;4857123;29;20053;-49
2023/08/02 08:57:52;;;;;;;6.38;2.05;;;20.60;99.90;;;;;;4859601;29;20052;-48
2023/08/02 09:00:19;;;;;;;6.45;1.60;;;20.70;99.90;;;;;;4859158;29;20068;-46
2023/08/02 09:02:45;;;;;;;7.82;1.90;;;20.70;99.90;;;;;;4860140;29;20521;-49
2023/08/02 09:05:12;;;;;;;6.40;1.55;;;20.80;99.90;;;;;;4860287;29;20106;-50
2023/08/02 09:07:39;;;;;;;6.35;1.42;;;20.80;99.90;;;;;;4859945;29;20060;-49
2023/08/02 09:10:06;;;;;;;9.10;1.60;;;20.80;99.90;;;;;;4859397;29;20050;-51
2023/08/02 09:12:33;;;;;;;6.13;1.33;;;20.90;99.90;;;;;;4860226;29;20045;-51
2023/08/02 09:15:00;;;;;;;7.22;1.40;;;21.00;99.90;;;;;;4860416;29;20058;-48
2023/08/02 09:17:27;;;;;;;5.57;1.25;;;20.80;99.90;;;;;;4859866;29;20073;-52
2023/08/02 09:19:55;;;;;;;7.10;1.00;;;20.40;99.90;;;;;;4860366;29;20042;-55
2023/08/02 09:22:22;;;;;;;4.05;1.00;;;20.00;99.90;;;;;;4858327;29;20104;-54
2023/08/02 09:24:52;;;;;;;5.20;1.08;;;19.70;99.90;;;;;;4859219;29;20061;-53
2023/08/02 09:27:20;;;;;;;4.45;1.00;;;19.50;99.90;;;;;;4862093;29;20055;-52
2023/08/02 09:29:47;;;;;;;4.80;0.93;;;19.40;99.90;;;;;;4860161;29;20050;-52
2023/08/02 09:32:14;;;;;;;5.82;0.98;;;19.30;99.90;;;;;;4860143;29;20558;-51
2023/08/02 09:34:41;;;;;;;3.28;0.80;;;19.30;99.90;;;;;;4860161;29;20038;-52
2023/08/02 09:37:10;;;;;;;5.03;0.90;;;19.40;99.90;;;;;;4859742;29;20049;-52
2023/08/02 09:39:37;;;;;;;3.90;1.10;;;19.50;99.90;;;;;;4858727;29;20148;-52
2023/08/02 09:42:04;;;;;;;4.65;1.17;;;19.70;99.90;;;;;;4858851;29;20078;-53
2023/08/02 09:44:31;;;;;;;5.22;1.20;;;19.70;99.90;;;;;;4858821;29;20061;-53
2023/08/02 09:46:58;;;;;;;9.00;2.00;;;19.70;99.90;;;;;;4858873;29;20053;-52
2023/08/02 09:49:25;;;;;;;5.80;1.38;;;19.80;99.90;;;;;;4858634;29;20123;-53
2023/08/02 09:51:51;;;;;;;8.30;1.55;;;20.00;99.90;;;;;;4858809;29;20034;-55
2023/08/02 09:54:18;;;;;;;6.82;1.70;;;20.10;99.90;;;;;;4860050;29;20044;-51
2023/08/02 09:56:45;;;;;;;8.15;1.80;;;20.10;99.90;;;;;;4863025;29;20050;-54
2023/08/02 09:59:12;;;;;;;7.35;1.80;;;20.10;99.90;;;;;;4862773;29;20092;-50
2023/08/02 10:01:39;;;;;;;9.07;1.90;;;20.20;99.90;;;;;;4861966;29;20046;-53
2023/08/02 10:04:05;;;;;;;6.70;1.63;;;20.40;99.90;;;;;;4863129;29;20102;-58
2023/08/02 10:06:32;;;;;;;8.98;1.65;;;20.60;99.90;;;;;;4863123;29;20054;-54
2023/08/02 10:09:00;;;;;;;7.65;1.90;;;20.70;99.90;;;;;;4862444;29;20045;-57
2023/08/02 10:11:26;;;;;;;9.23;1.95;;;20.70;99.90;;;;;;4862633;29;20045;-52
2023/08/02 10:13:53;;;;;;;6.30;1.70;;;20.80;99.90;;;;;;4863116;29;20500;-53
2023/08/02 10:16:20;;;;;;;8.65;2.13;;;20.80;99.90;;;;;;4862772;29;20082;-55
2023/08/02 10:18:47;;;;;;;8.98;2.50;;;20.90;99.90;;;;;;4861777;29;20061;-57
2023/08/02 10:21:14;;;;;;;10.23;2.85;;;20.90;99.90;;;;;;4865862;29;20056;-54
2023/08/02 10:23:41;;;;;;;9.00;2.40;;;21.00;99.90;;;;;;4862763;29;20061;-55
2023/08/02 10:26:07;;;;;;;10.40;3.10;;;21.10;99.90;;;;;;4862880;29;20489;-56
2023/08/02 10:28:34;;;;;;;9.70;2.70;;;21.20;99.90;;;;;;4862466;29;20049;-55
2023/08/02 10:31:02;;;;;;;9.82;2.78;;;21.40;99.90;;;;;;4862463;29;20041;-54
2023/08/02 10:33:29;;;;;;;13.65;3.38;;;21.50;99.90;;;;;;4862592;29;20038;-53
2023/08/02 10:35:56;;;;;;;10.32;3.13;;;21.50;99.90;;;;;;4846202;29;20115;-50
2023/08/02 10:38:23;;;;;;;10.40;3.00;;;21.50;99.90;;;;;;4861146;29;20382;-50
2023/08/02 10:40:50;;;;;;;14.13;2.92;;;21.40;99.50;;;;;;4862221;29;20052;-54
2023/08/02 10:43:16;;;;;;;12.23;2.90;;;21.40;99.90;;;;;;4862484;29;20397;-56
2023/08/02 10:45:43;;;;;;;15.50;2.90;;;21.30;99.90;;;;;;4862191;29;20069;-56
2023/08/02 10:48:10;;;;;;;12.60;2.88;;;21.20;99.90;;;;;;4861031;29;20054;-50
2023/08/02 10:50:37;;;;;;;12.13;2.85;;;21.00;99.90;;;;;;4860958;29;20045;-52
2023/08/02 10:53:03;;;;;;;11.50;2.58;;;20.60;99.90;;;;;;4862287;29;20481;-54
2023/08/02 10:55:30;;;;;;;12.77;2.83;;;20.50;99.90;;;;;;4862242;29;20063;-53
2023/08/02 10:57:57;;;;;;;10.90;2.63;;;20.60;99.90;;;;;;4862093;29;20501;-53
2023/08/02 11:00:24;;;;;;;10.10;2.25;;;20.70;99.90;;;;;;4862098;29;20045;-51
2023/08/02 11:02:51;;;;;;;7.35;1.98;;;20.80;99.90;;;;;;4860877;29;20060;-58
2023/08/02 11:05:19;;;;;;;10.45;2.20;;;20.80;99.90;;;;;;4862290;29;20049;-48
2023/08/02 11:07:46;;;;;;;11.98;2.50;;;20.80;99.90;;;;;;4862168;29;20054;-55
2023/08/02 11:10:12;;;;;;;6.55;2.10;;;20.90;99.90;;;;;;4859868;29;20038;-58
2023/08/02 11:12:39;;;;;;;9.55;2.00;;;21.00;99.90;;;;;;4862088;29;20049;-54
2023/08/02 11:15:06;;;;;;;9.27;2.35;;;21.00;99.90;;;;;;4860797;29;20045;-52
2023/08/02 11:17:33;;;;;;;6.70;1.67;;;21.20;99.90;;;;;;4862115;29;20049;-56
2023/08/02 11:20:04;;;;;;;10.18;2.00;;;21.40;99.90;;;;;;4862033;29;20509;-55
2023/08/02 11:22:32;;;;;;;9.25;2.30;;;21.50;99.90;;;;;;4861880;29;20070;-53
2023/08/02 11:25:00;;;;;;;11.65;2.53;;;21.50;99.90;;;;;;4860037;29;20060;-57
2023/08/02 11:27:27;;;;;;;9.70;2.10;;;21.50;99.90;;;;;;4860960;29;20157;-51
2023/08/02 11:29:58;;;;;;;12.13;2.22;;;21.40;99.90;;;;;;4861919;29;20044;-54
2023/08/02 11:32:24;;;;;;;9.82;2.55;;;21.50;99.90;;;;;;4861877;29;20428;-56
2023/08/02 11:34:51;;;;;;;10.15;2.38;;;21.40;99.80;;;;;;4860702;29;20083;-54
2023/08/02 11:37:18;;;;;;;15.05;3.00;;;21.30;99.90;;;;;;4861460;29;20501;-54
2023/08/02 11:39:45;;;;;;;11.27;2.72;;;21.20;99.90;;;;;;4861700;29;20072;-53
2023/08/02 11:42:32;;;;;;;9.70;2.85;;;21.10;99.90;;;;;;4861611;29;20045;-51
2023/08/02 11:44:59;;;;;;;10.50;2.45;;;20.80;99.90;;;;;;4861667;29;20084;-54
2023/08/02 11:47:45;;;;;;;11.18;3.17;;;20.80;99.90;;;;;;4857232;29;20061;-53
2023/08/02 11:50:19;;;;;;;11.43;3.15;;;20.90;99.90;;;;;;4861195;29;20046;-52
2023/08/02 11:52:45;;;;;;;11.45;2.88;;;21.00;99.90;;;;;;4861437;29;20048;-52
2023/08/02 11:55:12;;;;;;;13.63;3.22;;;21.10;99.90;;;;;;4861614;29;20497;-52
2023/08/02 11:57:39;;;;;;;10.27;2.67;;;21.10;99.90;;;;;;4861040;29;20045;-47
2023/08/02 12:00:06;;;;;;;16.58;3.60;;;21.10;99.90;;;;;;4860565;29;20054;-49
2023/08/02 12:02:37;;;;;;;11.88;2.65;;;21.10;99.90;;;;;;4860740;29;20054;-49
2023/08/02 12:05:08;;;;;;;14.57;3.35;;;21.10;99.90;;;;;;4860922;29;20063;-54
2023/08/02 12:07:35;;;;;;;11.73;3.45;;;21.10;99.90;;;;;;4860530;29;20404;-53
2023/08/02 12:10:03;;;;;;;9.45;2.20;;;21.10;99.90;;;;;;4860795;29;20045;-49
2023/08/02 12:12:29;;;;;;;8.50;2.10;;;21.10;99.90;;;;;;4859577;29;20049;-52
2023/08/02 12:14:57;;;;;;;8.30;2.35;;;21.20;99.90;;;;;;4860036;29;20051;-54
2023/08/02 12:17:23;;;;;;;6.80;2.00;;;21.30;99.90;;;;;;4860229;29;20049;-53
2023/08/02 12:19:50;;;;;;;5.35;1.60;;;21.20;99.90;;;;;;4860255;29;20073;-54
2023/08/02 12:22:17;;;;;;;7.68;1.63;;;21.20;99.90;;;;;;4859298;29;20188;-53
2023/08/02 12:24:44;;;;;;;5.88;1.45;;;21.10;99.90;;;;;;4860842;29;20050;-54
2023/08/02 12:27:11;;;;;;;4.95;1.30;;;21.10;99.90;;;;;;4860630;29;20049;-54
2023/08/02 12:29:37;;;;;;;5.07;1.52;;;21.00;99.90;;;;;;4859087;29;20049;-55
2023/08/02 12:32:04;;;;;;;4.10;1.10;;;20.90;99.90;;;;;;4860804;29;20059;-56
2023/08/02 12:34:31;;;;;;;5.82;1.63;;;20.80;99.90;;;;;;4860784;29;20050;-52
2023/08/02 12:36:59;;;;;;;4.88;1.23;;;20.60;99.90;;;;;;4860498;29;20057;-52
2023/08/02 12:39:26;;;;;;;7.10;1.23;;;20.20;99.90;;;;;;4859230;29;20065;-54
2023/08/02 12:41:53;;;;;;;6.93;1.45;;;20.00;99.90;;;;;;4860592;29;20409;-54
2023/08/02 12:44:20;;;;;;;4.50;1.00;;;19.80;99.90;;;;;;4860672;29;20045;-52